sensor_id;sensor_type;location;lat;lon;timestamp;P1;durP1;ratioP1;P2;durP2;ratioP2
74100;SDS011;62462;52.530;21.682;2022-08-25T00:01:27;30.58;;;7.78;;
74100;SDS011;62462;52.530;21.682;2022-08-25T00:03:55;33.38;;;7.32;;
74100;SDS011;62462;52.530;21.682;2022-08-25T00:06:22;30.35;;;6.82;;
74100;SDS011;62462;52.530;21.682;2022-08-25T00:08:48;40.92;;;7.97;;
74100;SDS011;62462;52.530;21.682;2022-08-25T00:11:16;32.75;;;7.57;;
74100;SDS011;62462;52.530;21.682;2022-08-25T00:13:45;33.55;;;6.97;;
74100;SDS011;62462;52.530;21.682;2022-08-25T00:16:13;38.70;;;7.63;;
74100;SDS011;62462;52.530;21.682;2022-08-25T00:18:42;32.30;;;6.72;;
74100;SDS011;62462;52.530;21.682;2022-08-25T00:21:09;34.63;;;7.03;;
74100;SDS011;62462;52.530;21.682;2022-08-25T00:23:35;31.50;;;6.30;;
74100;SDS011;62462;52.530;21.682;2022-08-25T00:26:01;32.50;;;6.72;;
74100;SDS011;62462;52.530;21.682;2022-08-25T00:28:27;32.90;;;7.15;;
74100;SDS011;62462;52.530;21.682;2022-08-25T00:30:55;34.60;;;6.55;;
74100;SDS011;62462;52.530;21.682;2022-08-25T00:33:21;27.63;;;7.35;;
74100;SDS011;62462;52.530;21.682;2022-08-25T00:35:47;38.45;;;7.85;;
74100;SDS011;62462;52.530;21.682;2022-08-25T00:38:14;36.15;;;7.88;;
74100;SDS011;62462;52.530;21.682;2022-08-25T00:40:41;28.67;;;7.82;;
74100;SDS011;62462;52.530;21.682;2022-08-25T00:43:07;35.15;;;7.22;;
74100;SDS011;62462;52.530;21.682;2022-08-25T00:45:33;32.22;;;7.45;;
74100;SDS011;62462;52.530;21.682;2022-08-25T00:47:59;30.88;;;6.65;;
74100;SDS011;62462;52.530;21.682;2022-08-25T00:50:28;29.67;;;6.80;;
74100;SDS011;62462;52.530;21.682;2022-08-25T00:52:58;28.45;;;7.53;;
74100;SDS011;62462;52.530;21.682;2022-08-25T00:55:27;27.27;;;6.60;;
74100;SDS011;62462;52.530;21.682;2022-08-25T01:00:31;26.83;;;6.88;;
74100;SDS011;62462;52.530;21.682;2022-08-25T01:03:03;29.08;;;6.97;;
74100;SDS011;62462;52.530;21.682;2022-08-25T01:05:29;25.83;;;6.82;;
74100;SDS011;62462;52.530;21.682;2022-08-25T01:07:59;37.65;;;6.70;;
74100;SDS011;62462;52.530;21.682;2022-08-25T01:10:31;30.58;;;8.00;;
74100;SDS011;62462;52.530;21.682;2022-08-25T01:13:19;33.58;;;7.53;;
74100;SDS011;62462;52.530;21.682;2022-08-25T01:15:52;27.05;;;6.38;;
74100;SDS011;62462;52.530;21.682;2022-08-25T01:18:20;28.77;;;6.53;;
74100;SDS011;62462;52.530;21.682;2022-08-25T01:20:48;28.08;;;6.32;;
74100;SDS011;62462;52.530;21.682;2022-08-25T01:23:22;32.60;;;6.70;;
74100;SDS011;62462;52.530;21.682;2022-08-25T01:26:02;24.92;;;6.55;;
74100;SDS011;62462;52.530;21.682;2022-08-25T01:28:36;27.55;;;6.13;;
74100;SDS011;62462;52.530;21.682;2022-08-25T01:31:23;30.58;;;6.35;;
74100;SDS011;62462;52.530;21.682;2022-08-25T01:33:48;32.60;;;6.70;;
74100;SDS011;62462;52.530;21.682;2022-08-25T01:36:16;26.58;;;6.05;;
74100;SDS011;62462;52.530;21.682;2022-08-25T01:38:43;36.10;;;6.80;;
74100;SDS011;62462;52.530;21.682;2022-08-25T01:43:39;25.58;;;6.47;;
74100;SDS011;62462;52.530;21.682;2022-08-25T01:46:04;32.30;;;7.13;;
74100;SDS011;62462;52.530;21.682;2022-08-25T01:48:33;31.58;;;6.22;;
74100;SDS011;62462;52.530;21.682;2022-08-25T01:50:58;32.97;;;7.00;;
74100;SDS011;62462;52.530;21.682;2022-08-25T01:53:28;28.08;;;6.38;;
74100;SDS011;62462;52.530;21.682;2022-08-25T01:55:55;25.75;;;6.32;;
74100;SDS011;62462;52.530;21.682;2022-08-25T01:58:27;26.80;;;6.10;;
74100;SDS011;62462;52.530;21.682;2022-08-25T02:00:57;26.42;;;6.47;;
74100;SDS011;62462;52.530;21.682;2022-08-25T02:03:25;28.08;;;5.80;;
74100;SDS011;62462;52.530;21.682;2022-08-25T02:05:53;24.50;;;5.78;;
74100;SDS011;62462;52.530;21.682;2022-08-25T02:08:19;30.10;;;6.35;;
74100;SDS011;62462;52.530;21.682;2022-08-25T02:10:46;34.25;;;7.18;;
74100;SDS011;62462;52.530;21.682;2022-08-25T02:13:12;29.45;;;7.40;;
74100;SDS011;62462;52.530;21.682;2022-08-25T02:15:39;29.60;;;5.82;;
74100;SDS011;62462;52.530;21.682;2022-08-25T02:18:10;28.55;;;6.57;;
74100;SDS011;62462;52.530;21.682;2022-08-25T02:20:36;26.17;;;6.07;;
74100;SDS011;62462;52.530;21.682;2022-08-25T02:23:02;30.95;;;6.15;;
74100;SDS011;62462;52.530;21.682;2022-08-25T02:25:29;29.52;;;7.35;;
74100;SDS011;62462;52.530;21.682;2022-08-25T02:27:55;22.48;;;6.13;;
74100;SDS011;62462;52.530;21.682;2022-08-25T02:30:21;41.35;;;7.88;;
74100;SDS011;62462;52.530;21.682;2022-08-25T02:32:46;34.67;;;6.45;;
74100;SDS011;62462;52.530;21.682;2022-08-25T02:35:12;32.05;;;7.20;;
74100;SDS011;62462;52.530;21.682;2022-08-25T02:37:38;33.70;;;7.00;;
74100;SDS011;62462;52.530;21.682;2022-08-25T02:40:04;30.20;;;6.75;;
74100;SDS011;62462;52.530;21.682;2022-08-25T02:42:31;37.08;;;7.10;;
74100;SDS011;62462;52.530;21.682;2022-08-25T02:44:57;27.98;;;6.65;;
74100;SDS011;62462;52.530;21.682;2022-08-25T02:47:23;23.17;;;5.97;;
74100;SDS011;62462;52.530;21.682;2022-08-25T02:49:48;27.33;;;6.53;;
74100;SDS011;62462;52.530;21.682;2022-08-25T02:52:14;30.25;;;7.55;;
74100;SDS011;62462;52.530;21.682;2022-08-25T02:54:40;31.65;;;6.95;;
74100;SDS011;62462;52.530;21.682;2022-08-25T02:57:07;36.58;;;8.13;;
74100;SDS011;62462;52.530;21.682;2022-08-25T02:59:35;38.80;;;7.28;;
74100;SDS011;62462;52.530;21.682;2022-08-25T03:02:02;32.60;;;7.13;;
74100;SDS011;62462;52.530;21.682;2022-08-25T03:04:28;29.73;;;6.32;;
74100;SDS011;62462;52.530;21.682;2022-08-25T03:06:55;29.33;;;7.13;;
74100;SDS011;62462;52.530;21.682;2022-08-25T03:09:22;36.90;;;6.18;;
74100;SDS011;62462;52.530;21.682;2022-08-25T03:11:47;35.03;;;7.22;;
74100;SDS011;62462;52.530;21.682;2022-08-25T03:14:13;24.73;;;6.28;;
74100;SDS011;62462;52.530;21.682;2022-08-25T03:16:39;29.38;;;8.55;;
74100;SDS011;62462;52.530;21.682;2022-08-25T03:19:06;25.65;;;6.75;;
74100;SDS011;62462;52.530;21.682;2022-08-25T03:21:32;33.40;;;7.43;;
74100;SDS011;62462;52.530;21.682;2022-08-25T03:23:58;28.30;;;6.78;;
74100;SDS011;62462;52.530;21.682;2022-08-25T03:26:24;26.98;;;6.90;;
74100;SDS011;62462;52.530;21.682;2022-08-25T03:29:09;34.60;;;6.70;;
74100;SDS011;62462;52.530;21.682;2022-08-25T03:31:35;40.25;;;7.30;;
74100;SDS011;62462;52.530;21.682;2022-08-25T03:34:03;35.03;;;6.68;;
74100;SDS011;62462;52.530;21.682;2022-08-25T03:36:31;30.48;;;7.47;;
74100;SDS011;62462;52.530;21.682;2022-08-25T03:38:57;40.42;;;6.85;;
74100;SDS011;62462;52.530;21.682;2022-08-25T03:41:25;33.15;;;6.53;;
74100;SDS011;62462;52.530;21.682;2022-08-25T03:43:52;38.05;;;7.65;;
74100;SDS011;62462;52.530;21.682;2022-08-25T03:46:23;29.90;;;7.35;;
74100;SDS011;62462;52.530;21.682;2022-08-25T03:48:53;36.28;;;7.63;;
74100;SDS011;62462;52.530;21.682;2022-08-25T03:51:27;30.52;;;6.75;;
74100;SDS011;62462;52.530;21.682;2022-08-25T03:53:56;32.13;;;6.80;;
74100;SDS011;62462;52.530;21.682;2022-08-25T03:56:23;31.58;;;6.78;;
74100;SDS011;62462;52.530;21.682;2022-08-25T03:58:49;40.92;;;7.50;;
74100;SDS011;62462;52.530;21.682;2022-08-25T04:01:15;36.40;;;7.00;;
74100;SDS011;62462;52.530;21.682;2022-08-25T04:03:41;38.53;;;7.05;;
74100;SDS011;62462;52.530;21.682;2022-08-25T04:06:07;32.95;;;7.63;;
74100;SDS011;62462;52.530;21.682;2022-08-25T04:08:33;31.30;;;7.45;;
74100;SDS011;62462;52.530;21.682;2022-08-25T04:11:03;31.45;;;6.70;;
74100;SDS011;62462;52.530;21.682;2022-08-25T04:13:30;27.42;;;7.72;;
74100;SDS011;62462;52.530;21.682;2022-08-25T04:15:56;24.90;;;6.35;;
74100;SDS011;62462;52.530;21.682;2022-08-25T04:18:22;29.90;;;7.82;;
74100;SDS011;62462;52.530;21.682;2022-08-25T04:20:47;40.10;;;7.10;;
74100;SDS011;62462;52.530;21.682;2022-08-25T04:23:16;34.28;;;7.65;;
74100;SDS011;62462;52.530;21.682;2022-08-25T04:25:42;44.28;;;7.93;;
74100;SDS011;62462;52.530;21.682;2022-08-25T04:28:08;37.35;;;8.23;;
74100;SDS011;62462;52.530;21.682;2022-08-25T04:30:34;40.05;;;7.90;;
74100;SDS011;62462;52.530;21.682;2022-08-25T04:33:01;30.75;;;7.40;;
74100;SDS011;62462;52.530;21.682;2022-08-25T04:35:26;34.75;;;7.05;;
74100;SDS011;62462;52.530;21.682;2022-08-25T04:37:52;32.53;;;7.22;;
74100;SDS011;62462;52.530;21.682;2022-08-25T04:40:18;34.88;;;7.00;;
74100;SDS011;62462;52.530;21.682;2022-08-25T04:42:44;32.33;;;6.97;;
74100;SDS011;62462;52.530;21.682;2022-08-25T04:45:10;30.50;;;7.18;;
74100;SDS011;62462;52.530;21.682;2022-08-25T04:47:39;32.45;;;7.50;;
74100;SDS011;62462;52.530;21.682;2022-08-25T04:50:05;33.70;;;7.40;;
74100;SDS011;62462;52.530;21.682;2022-08-25T04:52:32;33.38;;;7.00;;
74100;SDS011;62462;52.530;21.682;2022-08-25T04:54:57;36.35;;;7.38;;
74100;SDS011;62462;52.530;21.682;2022-08-25T04:57:24;25.77;;;7.55;;
74100;SDS011;62462;52.530;21.682;2022-08-25T04:59:50;32.20;;;7.55;;
74100;SDS011;62462;52.530;21.682;2022-08-25T05:02:16;29.02;;;7.25;;
74100;SDS011;62462;52.530;21.682;2022-08-25T05:04:41;36.15;;;7.18;;
74100;SDS011;62462;52.530;21.682;2022-08-25T05:07:07;26.63;;;7.43;;
74100;SDS011;62462;52.530;21.682;2022-08-25T05:09:33;32.28;;;7.63;;
74100;SDS011;62462;52.530;21.682;2022-08-25T05:12:00;29.17;;;8.35;;
74100;SDS011;62462;52.530;21.682;2022-08-25T05:14:26;26.40;;;7.38;;
74100;SDS011;62462;52.530;21.682;2022-08-25T05:16:52;29.58;;;7.85;;
74100;SDS011;62462;52.530;21.682;2022-08-25T05:19:19;30.13;;;8.52;;
74100;SDS011;62462;52.530;21.682;2022-08-25T05:21:44;32.33;;;6.93;;
74100;SDS011;62462;52.530;21.682;2022-08-25T05:24:11;28.83;;;7.65;;
74100;SDS011;62462;52.530;21.682;2022-08-25T05:26:36;33.53;;;8.45;;
74100;SDS011;62462;52.530;21.682;2022-08-25T05:29:02;29.70;;;7.85;;
74100;SDS011;62462;52.530;21.682;2022-08-25T05:31:30;28.77;;;7.10;;
74100;SDS011;62462;52.530;21.682;2022-08-25T05:33:56;25.75;;;6.47;;
74100;SDS011;62462;52.530;21.682;2022-08-25T05:36:23;21.00;;;6.57;;
74100;SDS011;62462;52.530;21.682;2022-08-25T05:38:50;25.80;;;6.55;;
74100;SDS011;62462;52.530;21.682;2022-08-25T05:41:17;20.25;;;6.82;;
74100;SDS011;62462;52.530;21.682;2022-08-25T05:43:46;17.52;;;5.93;;
74100;SDS011;62462;52.530;21.682;2022-08-25T05:46:13;16.52;;;5.78;;
74100;SDS011;62462;52.530;21.682;2022-08-25T05:48:40;19.23;;;6.00;;
74100;SDS011;62462;52.530;21.682;2022-08-25T05:51:07;18.23;;;6.00;;
74100;SDS011;62462;52.530;21.682;2022-08-25T05:53:34;13.38;;;5.43;;
74100;SDS011;62462;52.530;21.682;2022-08-25T05:56:01;23.25;;;7.57;;
74100;SDS011;62462;52.530;21.682;2022-08-25T05:58:28;19.25;;;6.38;;
74100;SDS011;62462;52.530;21.682;2022-08-25T06:00:54;19.02;;;6.72;;
74100;SDS011;62462;52.530;21.682;2022-08-25T06:03:21;23.63;;;6.75;;
74100;SDS011;62462;52.530;21.682;2022-08-25T06:05:47;22.92;;;7.72;;
74100;SDS011;62462;52.530;21.682;2022-08-25T06:08:13;21.52;;;6.43;;
74100;SDS011;62462;52.530;21.682;2022-08-25T06:10:39;15.30;;;5.90;;
74100;SDS011;62462;52.530;21.682;2022-08-25T06:13:05;13.05;;;5.28;;
74100;SDS011;62462;52.530;21.682;2022-08-25T06:15:31;17.13;;;5.32;;
74100;SDS011;62462;52.530;21.682;2022-08-25T06:18:00;18.85;;;6.20;;
74100;SDS011;62462;52.530;21.682;2022-08-25T06:20:27;20.63;;;5.80;;
74100;SDS011;62462;52.530;21.682;2022-08-25T06:22:55;10.32;;;5.45;;
74100;SDS011;62462;52.530;21.682;2022-08-25T06:25:22;21.60;;;6.95;;
74100;SDS011;62462;52.530;21.682;2022-08-25T06:27:52;15.70;;;6.13;;
74100;SDS011;62462;52.530;21.682;2022-08-25T06:30:19;18.00;;;6.18;;
74100;SDS011;62462;52.530;21.682;2022-08-25T06:32:46;13.82;;;5.13;;
74100;SDS011;62462;52.530;21.682;2022-08-25T06:35:14;17.90;;;6.35;;
74100;SDS011;62462;52.530;21.682;2022-08-25T06:37:42;16.70;;;5.88;;
74100;SDS011;62462;52.530;21.682;2022-08-25T06:40:08;19.83;;;6.30;;
74100;SDS011;62462;52.530;21.682;2022-08-25T06:42:35;18.15;;;6.57;;
74100;SDS011;62462;52.530;21.682;2022-08-25T06:45:01;15.57;;;5.53;;
74100;SDS011;62462;52.530;21.682;2022-08-25T06:47:27;10.60;;;5.38;;
74100;SDS011;62462;52.530;21.682;2022-08-25T06:49:53;12.90;;;6.10;;
74100;SDS011;62462;52.530;21.682;2022-08-25T06:52:19;10.43;;;5.20;;
74100;SDS011;62462;52.530;21.682;2022-08-25T06:54:44;21.92;;;5.65;;
74100;SDS011;62462;52.530;21.682;2022-08-25T06:57:10;13.45;;;5.95;;
74100;SDS011;62462;52.530;21.682;2022-08-25T06:59:36;16.85;;;5.97;;
74100;SDS011;62462;52.530;21.682;2022-08-25T07:02:03;16.52;;;6.43;;
74100;SDS011;62462;52.530;21.682;2022-08-25T07:04:30;19.90;;;6.50;;
74100;SDS011;62462;52.530;21.682;2022-08-25T07:06:56;15.30;;;6.13;;
74100;SDS011;62462;52.530;21.682;2022-08-25T07:09:23;16.70;;;5.78;;
74100;SDS011;62462;52.530;21.682;2022-08-25T07:11:48;13.80;;;6.05;;
74100;SDS011;62462;52.530;21.682;2022-08-25T07:14:15;15.98;;;6.05;;
74100;SDS011;62462;52.530;21.682;2022-08-25T07:16:42;12.32;;;5.85;;
74100;SDS011;62462;52.530;21.682;2022-08-25T07:19:08;13.32;;;6.28;;
74100;SDS011;62462;52.530;21.682;2022-08-25T07:21:35;15.05;;;5.50;;
74100;SDS011;62462;52.530;21.682;2022-08-25T07:24:09;14.82;;;5.22;;
74100;SDS011;62462;52.530;21.682;2022-08-25T07:26:37;10.65;;;4.88;;
74100;SDS011;62462;52.530;21.682;2022-08-25T07:29:07;17.27;;;5.30;;
74100;SDS011;62462;52.530;21.682;2022-08-25T07:31:38;14.40;;;5.32;;
74100;SDS011;62462;52.530;21.682;2022-08-25T07:34:04;13.82;;;5.13;;
74100;SDS011;62462;52.530;21.682;2022-08-25T07:36:49;14.18;;;5.13;;
74100;SDS011;62462;52.530;21.682;2022-08-25T07:39:15;17.92;;;5.03;;
74100;SDS011;62462;52.530;21.682;2022-08-25T07:41:41;11.90;;;4.80;;
74100;SDS011;62462;52.530;21.682;2022-08-25T07:44:08;16.73;;;5.28;;
74100;SDS011;62462;52.530;21.682;2022-08-25T07:46:35;16.27;;;4.53;;
74100;SDS011;62462;52.530;21.682;2022-08-25T07:49:01;21.00;;;5.47;;
74100;SDS011;62462;52.530;21.682;2022-08-25T07:51:27;12.07;;;4.75;;
74100;SDS011;62462;52.530;21.682;2022-08-25T07:53:53;21.13;;;5.38;;
74100;SDS011;62462;52.530;21.682;2022-08-25T07:56:19;9.98;;;4.60;;
74100;SDS011;62462;52.530;21.682;2022-08-25T07:58:45;16.13;;;4.40;;
74100;SDS011;62462;52.530;21.682;2022-08-25T08:01:13;25.70;;;5.25;;
74100;SDS011;62462;52.530;21.682;2022-08-25T08:03:40;13.93;;;4.30;;
74100;SDS011;62462;52.530;21.682;2022-08-25T08:06:07;14.85;;;4.78;;
74100;SDS011;62462;52.530;21.682;2022-08-25T08:08:36;19.30;;;4.82;;
74100;SDS011;62462;52.530;21.682;2022-08-25T08:11:13;12.40;;;4.15;;
74100;SDS011;62462;52.530;21.682;2022-08-25T08:13:43;16.25;;;4.55;;
74100;SDS011;62462;52.530;21.682;2022-08-25T08:16:10;13.45;;;3.95;;
74100;SDS011;62462;52.530;21.682;2022-08-25T08:18:37;10.20;;;3.33;;
74100;SDS011;62462;52.530;21.682;2022-08-25T08:21:03;6.82;;;3.42;;
74100;SDS011;62462;52.530;21.682;2022-08-25T08:23:28;10.00;;;3.25;;
74100;SDS011;62462;52.530;21.682;2022-08-25T08:25:54;14.27;;;3.53;;
74100;SDS011;62462;52.530;21.682;2022-08-25T08:28:21;10.73;;;3.55;;
74100;SDS011;62462;52.530;21.682;2022-08-25T08:30:47;8.65;;;3.22;;
74100;SDS011;62462;52.530;21.682;2022-08-25T08:33:13;9.95;;;3.33;;
74100;SDS011;62462;52.530;21.682;2022-08-25T08:35:39;10.82;;;3.78;;
74100;SDS011;62462;52.530;21.682;2022-08-25T08:38:05;19.45;;;3.78;;
74100;SDS011;62462;52.530;21.682;2022-08-25T08:40:32;13.07;;;3.55;;
74100;SDS011;62462;52.530;21.682;2022-08-25T08:43:06;12.23;;;3.03;;
74100;SDS011;62462;52.530;21.682;2022-08-25T08:45:43;8.50;;;3.42;;
74100;SDS011;62462;52.530;21.682;2022-08-25T08:56:08;11.25;;;4.00;;
74100;SDS011;62462;52.530;21.682;2022-08-25T09:01:54;15.73;;;3.88;;
74100;SDS011;62462;52.530;21.682;2022-08-25T09:04:37;10.30;;;3.30;;
74100;SDS011;62462;52.530;21.682;2022-08-25T09:07:16;11.85;;;3.47;;
74100;SDS011;62462;52.530;21.682;2022-08-25T09:09:46;13.23;;;3.23;;
74100;SDS011;62462;52.530;21.682;2022-08-25T09:12:14;9.55;;;3.78;;
74100;SDS011;62462;52.530;21.682;2022-08-25T09:25:23;11.40;;;3.28;;
74100;SDS011;62462;52.530;21.682;2022-08-25T09:30:40;6.13;;;2.35;;
74100;SDS011;62462;52.530;21.682;2022-08-25T09:33:26;9.30;;;2.80;;
74100;SDS011;62462;52.530;21.682;2022-08-25T09:35:54;8.13;;;2.65;;
74100;SDS011;62462;52.530;21.682;2022-08-25T09:38:20;8.48;;;2.75;;
74100;SDS011;62462;52.530;21.682;2022-08-25T09:40:48;6.45;;;1.80;;
74100;SDS011;62462;52.530;21.682;2022-08-25T09:46:16;5.72;;;2.15;;
74100;SDS011;62462;52.530;21.682;2022-08-25T09:51:31;6.15;;;1.98;;
74100;SDS011;62462;52.530;21.682;2022-08-25T09:56:30;7.07;;;2.15;;
74100;SDS011;62462;52.530;21.682;2022-08-25T10:01:50;8.20;;;2.15;;
74100;SDS011;62462;52.530;21.682;2022-08-25T10:04:31;6.72;;;2.05;;
74100;SDS011;62462;52.530;21.682;2022-08-25T10:07:01;8.02;;;2.50;;
74100;SDS011;62462;52.530;21.682;2022-08-25T10:09:37;5.85;;;2.10;;
74100;SDS011;62462;52.530;21.682;2022-08-25T10:12:15;9.82;;;2.20;;
74100;SDS011;62462;52.530;21.682;2022-08-25T10:15:14;7.45;;;1.77;;
74100;SDS011;62462;52.530;21.682;2022-08-25T10:17:46;4.63;;;1.90;;
74100;SDS011;62462;52.530;21.682;2022-08-25T10:22:42;7.90;;;2.17;;
74100;SDS011;62462;52.530;21.682;2022-08-25T10:25:09;4.97;;;2.08;;
74100;SDS011;62462;52.530;21.682;2022-08-25T10:38:43;7.15;;;1.83;;
74100;SDS011;62462;52.530;21.682;2022-08-25T10:43:53;6.72;;;2.53;;
74100;SDS011;62462;52.530;21.682;2022-08-25T10:49:32;10.35;;;1.90;;
74100;SDS011;62462;52.530;21.682;2022-08-25T11:07:48;6.90;;;1.77;;
74100;SDS011;62462;52.530;21.682;2022-08-25T11:10:24;6.63;;;2.08;;
74100;SDS011;62462;52.530;21.682;2022-08-25T11:12:57;5.80;;;2.03;;
74100;SDS011;62462;52.530;21.682;2022-08-25T11:15:30;6.45;;;1.58;;
74100;SDS011;62462;52.530;21.682;2022-08-25T11:18:09;5.88;;;2.25;;
74100;SDS011;62462;52.530;21.682;2022-08-25T11:20:45;3.33;;;2.00;;
74100;SDS011;62462;52.530;21.682;2022-08-25T11:25:59;7.20;;;2.17;;
74100;SDS011;62462;52.530;21.682;2022-08-25T11:28:35;7.70;;;2.00;;
74100;SDS011;62462;52.530;21.682;2022-08-25T11:31:04;8.38;;;1.90;;
74100;SDS011;62462;52.530;21.682;2022-08-25T11:33:34;7.22;;;1.95;;
74100;SDS011;62462;52.530;21.682;2022-08-25T11:36:19;4.90;;;1.88;;
74100;SDS011;62462;52.530;21.682;2022-08-25T11:57:36;7.40;;;2.10;;
74100;SDS011;62462;52.530;21.682;2022-08-25T12:00:10;5.38;;;2.13;;
74100;SDS011;62462;52.530;21.682;2022-08-25T12:02:55;12.98;;;2.30;;
74100;SDS011;62462;52.530;21.682;2022-08-25T12:10:22;6.70;;;2.20;;
74100;SDS011;62462;52.530;21.682;2022-08-25T12:18:37;5.90;;;1.60;;
74100;SDS011;62462;52.530;21.682;2022-08-25T12:23:35;3.78;;;1.77;;
74100;SDS011;62462;52.530;21.682;2022-08-25T12:26:10;7.72;;;1.95;;
74100;SDS011;62462;52.530;21.682;2022-08-25T12:28:49;8.98;;;2.05;;
74100;SDS011;62462;52.530;21.682;2022-08-25T12:34:20;3.72;;;1.83;;
74100;SDS011;62462;52.530;21.682;2022-08-25T12:47:32;4.83;;;1.93;;
74100;SDS011;62462;52.530;21.682;2022-08-25T12:53:16;6.30;;;2.03;;
74100;SDS011;62462;52.530;21.682;2022-08-25T12:55:59;4.90;;;1.92;;
74100;SDS011;62462;52.530;21.682;2022-08-25T13:12:42;9.35;;;2.53;;
74100;SDS011;62462;52.530;21.682;2022-08-25T13:15:32;6.20;;;2.08;;
74100;SDS011;62462;52.530;21.682;2022-08-25T13:18:12;8.52;;;3.00;;
74100;SDS011;62462;52.530;21.682;2022-08-25T13:20:37;4.45;;;2.70;;
74100;SDS011;62462;52.530;21.682;2022-08-25T13:23:03;3.28;;;1.77;;
74100;SDS011;62462;52.530;21.682;2022-08-25T13:25:29;7.47;;;2.35;;
74100;SDS011;62462;52.530;21.682;2022-08-25T13:27:58;4.15;;;2.00;;
74100;SDS011;62462;52.530;21.682;2022-08-25T13:30:29;6.75;;;2.58;;
74100;SDS011;62462;52.530;21.682;2022-08-25T13:32:57;3.95;;;2.10;;
74100;SDS011;62462;52.530;21.682;2022-08-25T13:35:24;5.20;;;1.90;;
74100;SDS011;62462;52.530;21.682;2022-08-25T13:38:10;7.35;;;1.92;;
74100;SDS011;62462;52.530;21.682;2022-08-25T13:40:39;8.48;;;2.35;;
74100;SDS011;62462;52.530;21.682;2022-08-25T13:43:06;7.60;;;1.88;;
74100;SDS011;62462;52.530;21.682;2022-08-25T13:45:39;10.70;;;2.10;;
74100;SDS011;62462;52.530;21.682;2022-08-25T13:48:11;5.60;;;2.20;;
74100;SDS011;62462;52.530;21.682;2022-08-25T13:50:38;7.43;;;2.42;;
74100;SDS011;62462;52.530;21.682;2022-08-25T13:58:42;7.10;;;2.20;;
74100;SDS011;62462;52.530;21.682;2022-08-25T14:03:47;7.93;;;2.00;;
74100;SDS011;62462;52.530;21.682;2022-08-25T14:08:41;4.80;;;2.38;;
74100;SDS011;62462;52.530;21.682;2022-08-25T14:11:11;7.40;;;2.30;;
74100;SDS011;62462;52.530;21.682;2022-08-25T14:13:58;7.95;;;2.22;;
74100;SDS011;62462;52.530;21.682;2022-08-25T14:16:28;6.15;;;2.10;;
74100;SDS011;62462;52.530;21.682;2022-08-25T14:19:01;3.35;;;1.90;;
74100;SDS011;62462;52.530;21.682;2022-08-25T14:21:29;7.43;;;2.30;;
74100;SDS011;62462;52.530;21.682;2022-08-25T14:23:56;3.25;;;2.00;;
74100;SDS011;62462;52.530;21.682;2022-08-25T14:26:23;5.97;;;2.00;;
74100;SDS011;62462;52.530;21.682;2022-08-25T14:28:49;7.18;;;2.00;;
74100;SDS011;62462;52.530;21.682;2022-08-25T14:31:26;11.10;;;2.17;;
74100;SDS011;62462;52.530;21.682;2022-08-25T14:36:25;5.45;;;2.15;;
74100;SDS011;62462;52.530;21.682;2022-08-25T14:38:54;5.45;;;2.15;;
74100;SDS011;62462;52.530;21.682;2022-08-25T14:41:20;8.25;;;2.33;;
74100;SDS011;62462;52.530;21.682;2022-08-25T14:43:47;11.45;;;2.30;;
74100;SDS011;62462;52.530;21.682;2022-08-25T14:46:18;5.30;;;2.10;;
74100;SDS011;62462;52.530;21.682;2022-08-25T14:48:50;5.68;;;1.85;;
74100;SDS011;62462;52.530;21.682;2022-08-25T14:51:20;8.27;;;2.40;;
74100;SDS011;62462;52.530;21.682;2022-08-25T14:53:47;7.10;;;2.58;;
74100;SDS011;62462;52.530;21.682;2022-08-25T14:56:13;4.60;;;1.70;;
74100;SDS011;62462;52.530;21.682;2022-08-25T14:58:40;5.70;;;2.13;;
74100;SDS011;62462;52.530;21.682;2022-08-25T15:01:09;5.90;;;1.80;;
74100;SDS011;62462;52.530;21.682;2022-08-25T15:03:38;6.07;;;2.13;;
74100;SDS011;62462;52.530;21.682;2022-08-25T15:06:07;8.10;;;2.13;;
74100;SDS011;62462;52.530;21.682;2022-08-25T15:08:36;5.25;;;1.95;;
74100;SDS011;62462;52.530;21.682;2022-08-25T15:11:20;6.40;;;2.00;;
74100;SDS011;62462;52.530;21.682;2022-08-25T15:13:46;6.18;;;2.47;;
74100;SDS011;62462;52.530;21.682;2022-08-25T15:16:13;5.63;;;2.10;;
74100;SDS011;62462;52.530;21.682;2022-08-25T15:18:44;3.13;;;1.88;;
74100;SDS011;62462;52.530;21.682;2022-08-25T15:21:10;6.28;;;1.85;;
74100;SDS011;62462;52.530;21.682;2022-08-25T15:23:36;4.45;;;2.00;;
74100;SDS011;62462;52.530;21.682;2022-08-25T15:26:02;5.25;;;1.98;;
74100;SDS011;62462;52.530;21.682;2022-08-25T15:28:28;9.45;;;2.60;;
74100;SDS011;62462;52.530;21.682;2022-08-25T15:30:54;6.95;;;2.42;;
74100;SDS011;62462;52.530;21.682;2022-08-25T15:33:19;5.97;;;2.33;;
74100;SDS011;62462;52.530;21.682;2022-08-25T15:35:46;8.95;;;2.00;;
74100;SDS011;62462;52.530;21.682;2022-08-25T15:38:12;6.53;;;1.92;;
74100;SDS011;62462;52.530;21.682;2022-08-25T15:40:38;5.95;;;2.33;;
74100;SDS011;62462;52.530;21.682;2022-08-25T15:43:04;4.80;;;2.20;;
74100;SDS011;62462;52.530;21.682;2022-08-25T15:45:30;14.10;;;2.38;;
74100;SDS011;62462;52.530;21.682;2022-08-25T15:47:56;4.97;;;1.90;;
74100;SDS011;62462;52.530;21.682;2022-08-25T15:50:22;6.38;;;1.85;;
74100;SDS011;62462;52.530;21.682;2022-08-25T15:52:48;9.60;;;2.45;;
74100;SDS011;62462;52.530;21.682;2022-08-25T15:55:15;8.82;;;2.22;;
74100;SDS011;62462;52.530;21.682;2022-08-25T15:57:42;8.98;;;2.17;;
74100;SDS011;62462;52.530;21.682;2022-08-25T16:00:08;6.72;;;2.20;;
74100;SDS011;62462;52.530;21.682;2022-08-25T16:02:36;4.63;;;2.10;;
74100;SDS011;62462;52.530;21.682;2022-08-25T16:05:03;5.93;;;2.50;;
74100;SDS011;62462;52.530;21.682;2022-08-25T16:07:32;6.75;;;2.17;;
74100;SDS011;62462;52.530;21.682;2022-08-25T16:09:58;8.85;;;2.75;;
74100;SDS011;62462;52.530;21.682;2022-08-25T16:12:24;9.43;;;2.30;;
74100;SDS011;62462;52.530;21.682;2022-08-25T16:14:51;9.77;;;4.55;;
74100;SDS011;62462;52.530;21.682;2022-08-25T16:17:17;8.02;;;3.72;;
74100;SDS011;62462;52.530;21.682;2022-08-25T16:19:43;6.90;;;2.30;;
74100;SDS011;62462;52.530;21.682;2022-08-25T16:22:10;7.88;;;2.10;;
74100;SDS011;62462;52.530;21.682;2022-08-25T16:24:39;9.35;;;2.28;;
74100;SDS011;62462;52.530;21.682;2022-08-25T16:27:08;8.32;;;2.00;;
74100;SDS011;62462;52.530;21.682;2022-08-25T16:29:35;4.40;;;2.55;;
74100;SDS011;62462;52.530;21.682;2022-08-25T16:32:05;8.63;;;2.30;;
74100;SDS011;62462;52.530;21.682;2022-08-25T16:34:32;9.35;;;2.40;;
74100;SDS011;62462;52.530;21.682;2022-08-25T16:36:58;8.02;;;2.00;;
74100;SDS011;62462;52.530;21.682;2022-08-25T16:39:24;8.95;;;2.58;;
74100;SDS011;62462;52.530;21.682;2022-08-25T16:41:50;5.90;;;2.42;;
74100;SDS011;62462;52.530;21.682;2022-08-25T16:44:17;4.88;;;2.42;;
74100;SDS011;62462;52.530;21.682;2022-08-25T16:46:43;6.15;;;2.55;;
74100;SDS011;62462;52.530;21.682;2022-08-25T16:49:10;7.13;;;2.20;;
74100;SDS011;62462;52.530;21.682;2022-08-25T16:51:38;5.20;;;2.00;;
74100;SDS011;62462;52.530;21.682;2022-08-25T16:54:05;4.85;;;1.60;;
74100;SDS011;62462;52.530;21.682;2022-08-25T16:56:50;5.15;;;1.90;;
74100;SDS011;62462;52.530;21.682;2022-08-25T16:59:15;4.65;;;2.03;;
74100;SDS011;62462;52.530;21.682;2022-08-25T17:01:41;4.88;;;2.28;;
74100;SDS011;62462;52.530;21.682;2022-08-25T17:04:08;9.35;;;2.00;;
74100;SDS011;62462;52.530;21.682;2022-08-25T17:06:37;7.03;;;2.10;;
74100;SDS011;62462;52.530;21.682;2022-08-25T17:09:05;3.97;;;2.50;;